createdAt,value
2022-10-14T00:02:35.373Z,49.50
2022-10-14T00:07:39.191Z,49.60
2022-10-14T00:12:42.426Z,49.60
2022-10-14T00:17:46.989Z,49.60
2022-10-14T00:22:50.249Z,49.70
2022-10-14T00:27:55.102Z,49.70
2022-10-14T00:33:01.018Z,49.70
2022-10-14T00:38:04.336Z,49.80
2022-10-14T00:43:11.492Z,49.70
2022-10-14T00:48:16.740Z,50.00
2022-10-14T00:53:22.936Z,49.90
2022-10-14T00:58:27.839Z,49.90
2022-10-14T01:03:35.198Z,49.90
2022-10-14T01:08:46.379Z,50.10
2022-10-14T01:13:56.052Z,50.10
2022-10-14T01:19:13.945Z,50.20
2022-10-14T01:24:44.145Z,50.50
2022-10-14T01:30:26.283Z,50.70
2022-10-14T01:35:43.029Z,50.70
2022-10-14T01:40:51.512Z,50.50
2022-10-14T01:45:57.627Z,50.50
2022-10-14T01:51:05.632Z,50.40
2022-10-14T01:56:11.085Z,50.60
2022-10-14T02:01:14.451Z,50.60
2022-10-14T02:06:24.092Z,50.60
2022-10-14T02:11:29.530Z,50.90
2022-10-14T02:16:38.745Z,50.70
2022-10-14T02:21:46.659Z,51.00
2022-10-14T02:26:53.459Z,51.20
2022-10-14T02:31:58.042Z,51.00
2022-10-14T02:37:03.993Z,50.90
2022-10-14T02:42:09.291Z,51.00
2022-10-14T02:47:12.570Z,50.90
2022-10-14T02:52:17.164Z,50.90
2022-10-14T02:57:20.392Z,51.10
2022-10-14T03:02:24.914Z,51.00
2022-10-14T03:07:30.682Z,51.00
2022-10-14T03:12:38.107Z,51.20
2022-10-14T03:17:45.942Z,51.10
2022-10-14T03:22:53.162Z,51.10
2022-10-14T03:27:56.835Z,51.40
2022-10-14T03:33:14.962Z,51.30
2022-10-14T03:38:33.451Z,51.50
2022-10-14T03:43:38.744Z,51.70
2022-10-14T03:48:43.162Z,51.50
2022-10-14T03:53:48.126Z,51.50
2022-10-14T03:58:59.478Z,52.10
2022-10-14T04:04:02.934Z,51.80
2022-10-14T04:09:08.088Z,51.80
2022-10-14T04:14:15.849Z,51.80
2022-10-14T04:19:24.270Z,51.60
2022-10-14T04:24:29.364Z,51.70
2022-10-14T04:29:35.484Z,51.80
2022-10-14T04:34:45.071Z,51.70
2022-10-14T04:39:53.313Z,51.70
2022-10-14T04:44:56.850Z,51.90
2022-10-14T04:50:11.147Z,52.40
2022-10-14T04:55:36.047Z,53.60
2022-10-14T05:00:39.920Z,54.50
2022-10-14T05:05:59.532Z,54.80
2022-10-14T05:11:05.107Z,55.20
2022-10-14T05:16:31.187Z,54.00
2022-10-14T05:21:34.503Z,53.00
2022-10-14T05:26:46.830Z,52.30
2022-10-14T05:31:52.690Z,51.90
2022-10-14T05:37:05.283Z,51.60
2022-10-14T05:42:17.685Z,51.40
2022-10-14T05:47:21.564Z,51.30
2022-10-14T05:52:33.485Z,51.20
2022-10-14T05:57:44.468Z,51.20
2022-10-14T06:02:51.192Z,51.40
2022-10-14T06:07:55.764Z,51.30
2022-10-14T06:13:00.528Z,51.40
2022-10-14T06:18:04.591Z,51.40
2022-10-14T06:23:08.794Z,51.40
2022-10-14T06:28:13.519Z,51.50
2022-10-14T06:33:16.640Z,51.60
2022-10-14T06:38:19.880Z,51.60
2022-10-14T06:43:24.782Z,51.60
2022-10-14T06:48:28.158Z,51.80
2022-10-14T06:53:31.766Z,51.80
2022-10-14T06:58:36.447Z,52.00
2022-10-14T07:03:40.190Z,52.20
2022-10-14T07:08:43.864Z,52.30
2022-10-14T07:13:48.536Z,52.40
2022-10-14T07:18:51.782Z,52.60
2022-10-14T07:23:55.636Z,52.60
2022-10-14T07:29:00.487Z,52.80
2022-10-14T07:34:03.897Z,53.00
2022-10-14T07:39:07.828Z,52.90
2022-10-14T07:44:14.316Z,53.10
2022-10-14T07:49:19.264Z,53.40
2022-10-14T07:54:24.898Z,53.20
2022-10-14T07:59:29.585Z,53.40
2022-10-14T08:04:33.402Z,53.50
2022-10-14T08:09:37.338Z,53.50
2022-10-14T08:14:42.196Z,53.50
2022-10-14T08:19:45.651Z,55.40
2022-10-14T08:24:50.189Z,57.60
2022-10-14T08:29:55.717Z,57.80
2022-10-14T08:34:59.046Z,57.20
2022-10-14T08:40:02.462Z,55.70
2022-10-14T08:45:16.193Z,54.80
2022-10-14T08:50:26.813Z,54.10
2022-10-14T08:55:37.055Z,53.30
2022-10-14T09:00:43.813Z,52.70
2022-10-14T09:05:58.774Z,52.50
2022-10-14T09:11:02.255Z,52.30
2022-10-14T09:16:12.369Z,52.10
2022-10-14T09:32:05.903Z,51.90
2022-10-14T09:37:26.235Z,51.90
2022-10-14T09:42:41.984Z,51.80
2022-10-14T09:47:53.425Z,51.90
2022-10-14T09:53:02.166Z,52.00
2022-10-14T09:58:08.685Z,52.10
2022-10-14T10:03:26.967Z,52.10
2022-10-14T10:08:30.363Z,52.30
2022-10-14T10:13:38.451Z,52.00
2022-10-14T10:18:43.612Z,52.80
2022-10-14T10:23:53.451Z,52.30
2022-10-14T10:28:58.697Z,52.40
2022-10-14T10:34:13.921Z,52.30
2022-10-14T10:39:27.137Z,52.50
2022-10-14T10:44:49.369Z,52.50
2022-10-14T10:50:18.116Z,52.70
2022-10-14T10:55:30.400Z,52.50
2022-10-14T11:00:42.588Z,52.50
2022-10-14T11:05:56.107Z,52.50
2022-10-14T11:11:31.888Z,52.70
2022-10-14T11:16:42.751Z,52.80
2022-10-14T11:21:56.148Z,52.70
2022-10-14T11:27:08.935Z,52.60
2022-10-14T11:32:21.066Z,52.50
2022-10-14T11:37:31.234Z,52.40
2022-10-14T11:42:49.176Z,52.30
2022-10-14T11:47:54.189Z,52.20
2022-10-14T11:53:03.336Z,52.20
2022-10-14T11:58:12.016Z,52.00
2022-10-14T12:03:28.001Z,52.00
2022-10-14T12:08:37.915Z,51.80
2022-10-14T12:13:47.562Z,51.80
2022-10-14T12:18:55.526Z,51.70
2022-10-14T12:24:07.339Z,51.60
2022-10-14T12:29:14.430Z,51.30
2022-10-14T12:34:42.861Z,51.40
2022-10-14T12:39:47.904Z,51.30
2022-10-14T12:44:56.173Z,51.40
2022-10-14T12:50:02.547Z,51.40
2022-10-14T12:55:15.989Z,51.40
2022-10-14T13:00:31.510Z,51.20
2022-10-14T13:05:37.362Z,51.10
2022-10-14T13:10:48.527Z,50.90
2022-10-14T13:15:53.044Z,50.70
2022-10-14T13:20:56.548Z,50.80
2022-10-14T13:26:11.928Z,50.60
2022-10-14T13:31:22.565Z,50.50
2022-10-14T13:36:37.008Z,50.50
2022-10-14T13:41:43.906Z,50.50
2022-10-14T13:46:49.770Z,50.40
2022-10-14T13:51:56.625Z,50.30
2022-10-14T13:57:35.027Z,50.30
2022-10-14T14:02:28.502Z,50.20
2022-10-14T14:08:30.178Z,50.20
2022-10-14T14:13:05.009Z,50.10
2022-10-14T14:18:33.914Z,50.70
2022-10-14T14:23:54.049Z,50.20
2022-10-14T14:28:58.833Z,50.60
2022-10-14T14:34:02.508Z,50.40
2022-10-14T14:39:05.733Z,50.40
2022-10-14T14:44:25.094Z,50.60
2022-10-14T14:49:33.028Z,50.40
2022-10-14T14:54:46.251Z,50.40
2022-10-14T14:59:58.567Z,50.20
2022-10-14T15:05:03.355Z,50.20
2022-10-14T15:10:09.035Z,50.20
2022-10-14T15:15:29.957Z,50.10
2022-10-14T15:20:36.616Z,49.90
2022-10-14T15:25:40.395Z,50.10
2022-10-14T15:30:55.703Z,50.10
2022-10-14T15:36:02.038Z,49.90
2022-10-14T15:41:06.145Z,50.00
2022-10-14T15:46:32.087Z,49.90
2022-10-14T15:51:35.891Z,49.90
2022-10-14T15:56:39.956Z,50.10
2022-10-14T16:01:46.325Z,50.10
2022-10-14T16:06:50.372Z,50.50
2022-10-14T16:11:58.258Z,50.40
2022-10-14T16:17:03.299Z,50.20
2022-10-14T16:22:06.666Z,49.90
2022-10-14T16:27:12.590Z,49.60
2022-10-14T16:32:17.523Z,49.40
2022-10-14T16:37:21.067Z,49.30
2022-10-14T16:42:24.774Z,49.30
2022-10-14T16:47:29.521Z,49.20
2022-10-14T16:52:55.387Z,49.10
2022-10-14T16:57:58.831Z,49.10
2022-10-14T17:03:03.545Z,49.10
2022-10-14T17:08:07.028Z,48.80
2022-10-14T17:13:10.683Z,48.80
2022-10-14T17:18:18.066Z,48.90
2022-10-14T17:23:22.605Z,49.00
2022-10-14T17:28:26.975Z,49.00
2022-10-14T17:33:35.693Z,49.00
2022-10-14T17:38:39.828Z,48.70
2022-10-14T17:43:43.413Z,48.90
2022-10-14T17:48:52.017Z,48.80
2022-10-14T17:53:57.449Z,48.70
2022-10-14T17:59:03.383Z,48.80
2022-10-14T18:04:09.511Z,48.70
2022-10-14T18:09:17.203Z,48.80
2022-10-14T18:14:21.266Z,48.80
2022-10-14T18:19:27.290Z,48.80
2022-10-14T18:24:33.182Z,48.80
2022-10-14T18:29:37.257Z,48.80
2022-10-14T18:34:43.053Z,48.80
2022-10-14T18:39:46.695Z,48.90
2022-10-14T18:44:50.679Z,48.90
2022-10-14T18:49:56.952Z,49.00
2022-10-14T18:55:01.446Z,49.00
2022-10-14T19:00:09.383Z,49.00
2022-10-14T19:05:18.090Z,49.10
2022-10-14T19:10:22.755Z,49.20
2022-10-14T19:15:27.759Z,49.20
2022-10-14T19:20:36.745Z,49.30
2022-10-14T19:25:41.198Z,49.30
2022-10-14T19:30:46.245Z,49.30
2022-10-14T19:36:01.174Z,49.40
2022-10-14T19:41:08.409Z,49.60
2022-10-14T19:46:14.197Z,49.50
2022-10-14T19:51:22.477Z,49.60
2022-10-14T19:56:27.946Z,49.60
2022-10-14T20:01:32.407Z,49.60
2022-10-14T20:06:40.137Z,49.70
2022-10-14T20:11:44.014Z,49.80
2022-10-14T20:16:50.997Z,49.80
2022-10-14T20:22:00.679Z,49.80
2022-10-14T20:27:06.658Z,49.90
2022-10-14T20:32:13.026Z,50.00
2022-10-14T20:37:17.631Z,50.00
2022-10-14T20:42:20.936Z,50.10
2022-10-14T20:47:25.137Z,50.10
2022-10-14T20:52:30.884Z,50.10
2022-10-14T20:57:34.166Z,50.20
2022-10-14T21:02:37.925Z,50.20
2022-10-14T21:07:42.712Z,50.30
2022-10-14T21:12:48.697Z,50.40
2022-10-14T21:17:52.517Z,50.40
2022-10-14T21:22:57.283Z,50.40
2022-10-14T21:28:00.514Z,50.50
2022-10-14T21:33:03.778Z,51.20
2022-10-14T21:38:08.473Z,50.50
2022-10-14T21:43:11.847Z,50.60
2022-10-14T21:48:15.190Z,50.60
2022-10-14T21:53:19.906Z,50.60
2022-10-14T21:58:23.254Z,50.70
2022-10-14T22:03:26.531Z,50.70
2022-10-14T22:08:36.106Z,50.70
2022-10-14T22:13:39.432Z,51.10
2022-10-14T22:18:45.178Z,50.90
2022-10-14T22:23:51.308Z,51.00
2022-10-14T22:28:59.969Z,51.10
2022-10-14T22:34:08.128Z,51.30
2022-10-14T22:39:15.573Z,51.20
2022-10-14T22:44:18.946Z,51.30
2022-10-14T22:49:22.347Z,51.20
2022-10-14T22:54:27.385Z,51.30
2022-10-14T22:59:30.762Z,51.40
2022-10-14T23:04:34.018Z,51.40
2022-10-14T23:09:39.118Z,51.30
2022-10-14T23:14:42.416Z,51.40
2022-10-14T23:19:47.367Z,51.40
2022-10-14T23:24:52.078Z,51.40
2022-10-14T23:29:55.395Z,51.50
2022-10-14T23:34:58.716Z,51.40
2022-10-14T23:40:04.951Z,51.50
2022-10-14T23:45:09.352Z,51.60
2022-10-14T23:50:12.832Z,51.50
2022-10-14T23:55:17.723Z,51.50
